Terminal Aerodrome Forecast
Issued by NWS Duluth, MN

Home | Current Version | Previous Version | Text Only | Print | Product List | Glossary On
Versions: 1 2 3 4 5 6 7 8 9 10 11 12 13 14 15 16 17 18 19 20 21 22 23
884
FTUS43 KDLH 210538
TAFDLH
TAF
KDLH 210538Z 2106/2206 30005KT P6SM SCT120
     FM211400 11004KT P6SM SCT250
     FM212300 04006KT P6SM SCT050 BKN200
     FM220200 36005KT P6SM SCT200=

USA.gov is the U.S. government's official web portal to all federal, state and local government web resources and services.